sensor_id;sensor_type;location;lat;lon;timestamp;temperature;humidity
38090;DHT22;23904;52.322;10.232;2023-06-14T00:00:39;17.90;65.50
38090;DHT22;23904;52.322;10.232;2023-06-14T00:03:06;17.90;65.90
38090;DHT22;23904;52.322;10.232;2023-06-14T00:05:35;17.80;66.20
38090;DHT22;23904;52.322;10.232;2023-06-14T00:08:06;17.80;66.10
38090;DHT22;23904;52.322;10.232;2023-06-14T00:10:38;17.70;66.30
38090;DHT22;23904;52.322;10.232;2023-06-14T00:13:07;17.70;66.60
38090;DHT22;23904;52.322;10.232;2023-06-14T00:15:33;17.60;66.80
38090;DHT22;23904;52.322;10.232;2023-06-14T00:18:00;17.70;66.70
38090;DHT22;23904;52.322;10.232;2023-06-14T00:20:30;17.70;67.00
38090;DHT22;23904;52.322;10.232;2023-06-14T00:22:58;17.60;67.20
38090;DHT22;23904;52.322;10.232;2023-06-14T00:25:27;17.50;67.30
38090;DHT22;23904;52.322;10.232;2023-06-14T00:27:56;17.50;67.40
38090;DHT22;23904;52.322;10.232;2023-06-14T00:30:22;17.50;67.80
38090;DHT22;23904;52.322;10.232;2023-06-14T00:32:48;17.40;67.90
38090;DHT22;23904;52.322;10.232;2023-06-14T00:35:15;17.40;68.20
38090;DHT22;23904;52.322;10.232;2023-06-14T00:37:41;17.40;68.20
38090;DHT22;23904;52.322;10.232;2023-06-14T00:40:07;17.40;68.00
38090;DHT22;23904;52.322;10.232;2023-06-14T00:42:33;17.30;68.40
38090;DHT22;23904;52.322;10.232;2023-06-14T00:45:00;17.30;68.30
38090;DHT22;23904;52.322;10.232;2023-06-14T00:47:26;17.20;68.90
38090;DHT22;23904;52.322;10.232;2023-06-14T00:49:53;17.20;68.80
38090;DHT22;23904;52.322;10.232;2023-06-14T00:52:19;17.10;69.10
38090;DHT22;23904;52.322;10.232;2023-06-14T00:54:46;17.00;69.70
38090;DHT22;23904;52.322;10.232;2023-06-14T00:57:12;16.90;70.10
38090;DHT22;23904;52.322;10.232;2023-06-14T00:59:42;16.90;70.20
38090;DHT22;23904;52.322;10.232;2023-06-14T01:02:08;16.80;70.30
38090;DHT22;23904;52.322;10.232;2023-06-14T01:04:33;16.80;70.40
38090;DHT22;23904;52.322;10.232;2023-06-14T01:07:02;16.70;70.90
38090;DHT22;23904;52.322;10.232;2023-06-14T01:10:09;16.70;70.90
38090;DHT22;23904;52.322;10.232;2023-06-14T01:12:58;16.70;71.30
38090;DHT22;23904;52.322;10.232;2023-06-14T01:15:39;16.60;72.20
38090;DHT22;23904;52.322;10.232;2023-06-14T01:18:06;16.60;71.50
38090;DHT22;23904;52.322;10.232;2023-06-14T01:20:33;16.60;71.60
38090;DHT22;23904;52.322;10.232;2023-06-14T01:23:03;16.60;72.00
38090;DHT22;23904;52.322;10.232;2023-06-14T01:25:29;16.60;71.90
38090;DHT22;23904;52.322;10.232;2023-06-14T01:28:00;16.70;71.80
38090;DHT22;23904;52.322;10.232;2023-06-14T01:30:29;16.70;71.70
38090;DHT22;23904;52.322;10.232;2023-06-14T01:32:56;16.70;72.00
38090;DHT22;23904;52.322;10.232;2023-06-14T01:35:23;16.70;72.00
38090;DHT22;23904;52.322;10.232;2023-06-14T01:37:49;16.70;72.10
38090;DHT22;23904;52.322;10.232;2023-06-14T01:40:15;16.70;71.90
38090;DHT22;23904;52.322;10.232;2023-06-14T01:42:43;16.70;71.90
38090;DHT22;23904;52.322;10.232;2023-06-14T01:45:11;16.60;72.20
38090;DHT22;23904;52.322;10.232;2023-06-14T01:47:38;16.70;71.80
38090;DHT22;23904;52.322;10.232;2023-06-14T01:50:05;16.60;72.40
38090;DHT22;23904;52.322;10.232;2023-06-14T01:52:31;16.60;72.40
38090;DHT22;23904;52.322;10.232;2023-06-14T01:54:57;16.60;72.10
38090;DHT22;23904;52.322;10.232;2023-06-14T01:57:24;16.50;72.30
38090;DHT22;23904;52.322;10.232;2023-06-14T01:59:50;16.50;72.50
38090;DHT22;23904;52.322;10.232;2023-06-14T02:02:16;16.50;72.40
38090;DHT22;23904;52.322;10.232;2023-06-14T02:04:42;16.50;72.60
38090;DHT22;23904;52.322;10.232;2023-06-14T02:07:07;16.40;73.00
38090;DHT22;23904;52.322;10.232;2023-06-14T02:09:34;16.30;73.30
38090;DHT22;23904;52.322;10.232;2023-06-14T02:12:00;16.30;73.60
38090;DHT22;23904;52.322;10.232;2023-06-14T02:14:26;16.30;73.60
38090;DHT22;23904;52.322;10.232;2023-06-14T02:16:52;16.20;73.90
38090;DHT22;23904;52.322;10.232;2023-06-14T02:19:19;16.30;74.00
38090;DHT22;23904;52.322;10.232;2023-06-14T02:21:46;16.30;74.00
38090;DHT22;23904;52.322;10.232;2023-06-14T02:24:12;16.20;74.10
38090;DHT22;23904;52.322;10.232;2023-06-14T02:26:38;16.10;74.20
38090;DHT22;23904;52.322;10.232;2023-06-14T02:29:04;16.20;74.40
38090;DHT22;23904;52.322;10.232;2023-06-14T02:31:32;16.10;75.10
38090;DHT22;23904;52.322;10.232;2023-06-14T02:33:58;16.00;75.00
38090;DHT22;23904;52.322;10.232;2023-06-14T02:36:23;15.90;75.40
38090;DHT22;23904;52.322;10.232;2023-06-14T02:38:50;15.80;75.70
38090;DHT22;23904;52.322;10.232;2023-06-14T02:41:15;15.70;76.00
38090;DHT22;23904;52.322;10.232;2023-06-14T02:43:41;15.70;76.10
38090;DHT22;23904;52.322;10.232;2023-06-14T02:46:06;15.70;76.40
38090;DHT22;23904;52.322;10.232;2023-06-14T02:48:32;15.70;76.60
38090;DHT22;23904;52.322;10.232;2023-06-14T02:50:58;15.60;76.60
38090;DHT22;23904;52.322;10.232;2023-06-14T02:53:23;15.70;76.80
38090;DHT22;23904;52.322;10.232;2023-06-14T02:55:49;15.60;77.20
38090;DHT22;23904;52.322;10.232;2023-06-14T02:58:14;15.50;78.10
38090;DHT22;23904;52.322;10.232;2023-06-14T03:00:41;15.60;77.50
38090;DHT22;23904;52.322;10.232;2023-06-14T03:03:07;15.50;77.60
38090;DHT22;23904;52.322;10.232;2023-06-14T03:05:44;15.50;78.10
38090;DHT22;23904;52.322;10.232;2023-06-14T03:08:14;15.40;78.70
38090;DHT22;23904;52.322;10.232;2023-06-14T03:10:43;15.40;78.90
38090;DHT22;23904;52.322;10.232;2023-06-14T03:13:09;15.40;78.90
38090;DHT22;23904;52.322;10.232;2023-06-14T03:15:36;15.40;79.30
38090;DHT22;23904;52.322;10.232;2023-06-14T03:18:02;15.40;79.40
38090;DHT22;23904;52.322;10.232;2023-06-14T03:20:29;15.40;79.50
38090;DHT22;23904;52.322;10.232;2023-06-14T03:22:59;15.30;79.90
38090;DHT22;23904;52.322;10.232;2023-06-14T03:25:26;15.40;80.00
38090;DHT22;23904;52.322;10.232;2023-06-14T03:27:55;15.50;79.70
38090;DHT22;23904;52.322;10.232;2023-06-14T03:30:21;15.40;80.10
38090;DHT22;23904;52.322;10.232;2023-06-14T03:32:47;15.40;80.30
38090;DHT22;23904;52.322;10.232;2023-06-14T03:35:12;15.50;80.40
38090;DHT22;23904;52.322;10.232;2023-06-14T03:37:43;15.50;80.20
38090;DHT22;23904;52.322;10.232;2023-06-14T03:40:10;15.40;80.60
38090;DHT22;23904;52.322;10.232;2023-06-14T03:42:36;15.50;80.70
38090;DHT22;23904;52.322;10.232;2023-06-14T03:45:02;15.50;80.60
38090;DHT22;23904;52.322;10.232;2023-06-14T03:47:28;15.50;80.80
38090;DHT22;23904;52.322;10.232;2023-06-14T03:49:53;15.50;80.80
38090;DHT22;23904;52.322;10.232;2023-06-14T03:52:19;15.40;81.10
38090;DHT22;23904;52.322;10.232;2023-06-14T03:54:44;15.50;80.90
38090;DHT22;23904;52.322;10.232;2023-06-14T03:57:10;15.60;80.90
38090;DHT22;23904;52.322;10.232;2023-06-14T03:59:36;15.50;81.10
38090;DHT22;23904;52.322;10.232;2023-06-14T04:02:02;15.50;81.30
38090;DHT22;23904;52.322;10.232;2023-06-14T04:04:28;15.50;81.50
38090;DHT22;23904;52.322;10.232;2023-06-14T04:06:57;15.50;81.40
38090;DHT22;23904;52.322;10.232;2023-06-14T04:09:24;15.50;81.90
38090;DHT22;23904;52.322;10.232;2023-06-14T04:11:51;15.50;81.40
38090;DHT22;23904;52.322;10.232;2023-06-14T04:14:18;15.50;82.00
38090;DHT22;23904;52.322;10.232;2023-06-14T04:16:46;15.50;82.20
38090;DHT22;23904;52.322;10.232;2023-06-14T04:19:11;15.40;82.60
38090;DHT22;23904;52.322;10.232;2023-06-14T04:21:37;15.40;82.80
38090;DHT22;23904;52.322;10.232;2023-06-14T04:24:03;15.40;83.00
38090;DHT22;23904;52.322;10.232;2023-06-14T04:26:29;15.50;83.00
38090;DHT22;23904;52.322;10.232;2023-06-14T04:28:56;15.50;83.40
38090;DHT22;23904;52.322;10.232;2023-06-14T04:31:22;15.50;83.30
38090;DHT22;23904;52.322;10.232;2023-06-14T04:33:51;15.40;83.80
38090;DHT22;23904;52.322;10.232;2023-06-14T04:36:19;15.40;83.90
38090;DHT22;23904;52.322;10.232;2023-06-14T04:38:45;15.50;84.40
38090;DHT22;23904;52.322;10.232;2023-06-14T04:41:11;15.50;83.80
38090;DHT22;23904;52.322;10.232;2023-06-14T04:43:37;15.50;84.30
38090;DHT22;23904;52.322;10.232;2023-06-14T04:46:04;15.60;84.20
38090;DHT22;23904;52.322;10.232;2023-06-14T04:48:31;15.50;84.60
38090;DHT22;23904;52.322;10.232;2023-06-14T04:50:57;15.60;84.70
38090;DHT22;23904;52.322;10.232;2023-06-14T04:53:23;15.50;85.70
38090;DHT22;23904;52.322;10.232;2023-06-14T04:55:49;15.60;84.80
38090;DHT22;23904;52.322;10.232;2023-06-14T04:58:16;15.60;85.00
38090;DHT22;23904;52.322;10.232;2023-06-14T05:00:41;15.60;85.00
38090;DHT22;23904;52.322;10.232;2023-06-14T05:03:08;15.60;85.60
38090;DHT22;23904;52.322;10.232;2023-06-14T05:05:34;15.50;85.60
38090;DHT22;23904;52.322;10.232;2023-06-14T05:08:00;15.50;86.50
38090;DHT22;23904;52.322;10.232;2023-06-14T05:10:25;15.40;86.90
38090;DHT22;23904;52.322;10.232;2023-06-14T05:12:51;15.50;87.80
38090;DHT22;23904;52.322;10.232;2023-06-14T05:15:18;15.50;88.20
38090;DHT22;23904;52.322;10.232;2023-06-14T05:17:45;15.70;87.40
38090;DHT22;23904;52.322;10.232;2023-06-14T05:20:18;15.70;87.80
38090;DHT22;23904;52.322;10.232;2023-06-14T05:22:43;15.80;87.50
38090;DHT22;23904;52.322;10.232;2023-06-14T05:25:09;15.90;87.60
38090;DHT22;23904;52.322;10.232;2023-06-14T05:27:35;15.80;87.50
38090;DHT22;23904;52.322;10.232;2023-06-14T05:30:02;15.90;87.60
38090;DHT22;23904;52.322;10.232;2023-06-14T05:32:29;15.90;87.50
38090;DHT22;23904;52.322;10.232;2023-06-14T05:34:55;15.90;88.20
38090;DHT22;23904;52.322;10.232;2023-06-14T05:37:20;15.90;88.50
38090;DHT22;23904;52.322;10.232;2023-06-14T05:39:46;16.00;88.90
38090;DHT22;23904;52.322;10.232;2023-06-14T05:42:11;16.10;88.40
38090;DHT22;23904;52.322;10.232;2023-06-14T05:44:37;16.20;88.00
38090;DHT22;23904;52.322;10.232;2023-06-14T05:47:03;16.20;88.30
38090;DHT22;23904;52.322;10.232;2023-06-14T05:49:28;16.30;87.80
38090;DHT22;23904;52.322;10.232;2023-06-14T05:51:54;16.30;87.80
38090;DHT22;23904;52.322;10.232;2023-06-14T05:54:19;16.40;87.70
38090;DHT22;23904;52.322;10.232;2023-06-14T05:56:45;16.40;88.10
38090;DHT22;23904;52.322;10.232;2023-06-14T05:59:10;16.40;87.70
38090;DHT22;23904;52.322;10.232;2023-06-14T06:01:36;16.50;87.80
38090;DHT22;23904;52.322;10.232;2023-06-14T06:04:02;16.50;87.60
38090;DHT22;23904;52.322;10.232;2023-06-14T06:06:27;16.50;88.50
38090;DHT22;23904;52.322;10.232;2023-06-14T06:08:54;16.50;88.60
38090;DHT22;23904;52.322;10.232;2023-06-14T06:11:19;16.50;89.10
38090;DHT22;23904;52.322;10.232;2023-06-14T06:13:45;16.70;88.00
38090;DHT22;23904;52.322;10.232;2023-06-14T06:16:11;16.70;88.40
38090;DHT22;23904;52.322;10.232;2023-06-14T06:18:36;16.70;87.70
38090;DHT22;23904;52.322;10.232;2023-06-14T06:21:04;16.90;87.00
38090;DHT22;23904;52.322;10.232;2023-06-14T06:23:29;16.90;87.40
38090;DHT22;23904;52.322;10.232;2023-06-14T06:25:55;17.00;87.10
38090;DHT22;23904;52.322;10.232;2023-06-14T06:28:20;17.10;85.60
38090;DHT22;23904;52.322;10.232;2023-06-14T06:30:46;17.10;86.20
38090;DHT22;23904;52.322;10.232;2023-06-14T06:33:12;17.10;85.70
38090;DHT22;23904;52.322;10.232;2023-06-14T06:35:38;17.10;85.40
38090;DHT22;23904;52.322;10.232;2023-06-14T06:38:03;17.20;85.30
38090;DHT22;23904;52.322;10.232;2023-06-14T06:40:29;17.20;84.70
38090;DHT22;23904;52.322;10.232;2023-06-14T06:42:54;17.30;84.30
38090;DHT22;23904;52.322;10.232;2023-06-14T06:45:20;17.30;84.20
38090;DHT22;23904;52.322;10.232;2023-06-14T06:47:46;17.30;83.90
38090;DHT22;23904;52.322;10.232;2023-06-14T06:50:12;17.50;83.10
38090;DHT22;23904;52.322;10.232;2023-06-14T06:52:37;17.50;83.50
38090;DHT22;23904;52.322;10.232;2023-06-14T06:55:03;17.60;81.80
38090;DHT22;23904;52.322;10.232;2023-06-14T06:57:29;17.60;81.40
38090;DHT22;23904;52.322;10.232;2023-06-14T06:59:54;17.60;82.10
38090;DHT22;23904;52.322;10.232;2023-06-14T07:02:20;17.60;81.90
38090;DHT22;23904;52.322;10.232;2023-06-14T07:04:45;17.60;81.50
38090;DHT22;23904;52.322;10.232;2023-06-14T07:07:12;17.60;81.10
38090;DHT22;23904;52.322;10.232;2023-06-14T07:09:37;17.60;81.90
38090;DHT22;23904;52.322;10.232;2023-06-14T07:12:03;17.60;81.70
38090;DHT22;23904;52.322;10.232;2023-06-14T07:14:29;17.80;81.90
38090;DHT22;23904;52.322;10.232;2023-06-14T07:16:55;17.90;81.80
38090;DHT22;23904;52.322;10.232;2023-06-14T07:19:21;18.00;81.70
38090;DHT22;23904;52.322;10.232;2023-06-14T07:21:46;18.00;80.00
38090;DHT22;23904;52.322;10.232;2023-06-14T07:24:11;18.10;80.10
38090;DHT22;23904;52.322;10.232;2023-06-14T07:26:37;18.10;78.70
38090;DHT22;23904;52.322;10.232;2023-06-14T07:29:03;18.10;79.40
38090;DHT22;23904;52.322;10.232;2023-06-14T07:31:29;18.20;78.90
38090;DHT22;23904;52.322;10.232;2023-06-14T07:33:54;18.10;79.00
38090;DHT22;23904;52.322;10.232;2023-06-14T07:36:20;18.30;79.00
38090;DHT22;23904;52.322;10.232;2023-06-14T07:38:46;18.40;78.20
38090;DHT22;23904;52.322;10.232;2023-06-14T07:41:11;18.50;77.50
38090;DHT22;23904;52.322;10.232;2023-06-14T07:43:37;18.60;76.90
38090;DHT22;23904;52.322;10.232;2023-06-14T07:46:04;18.60;77.00
38090;DHT22;23904;52.322;10.232;2023-06-14T07:48:30;18.70;76.50
38090;DHT22;23904;52.322;10.232;2023-06-14T07:50:55;18.90;76.60
38090;DHT22;23904;52.322;10.232;2023-06-14T07:53:21;18.90;75.90
38090;DHT22;23904;52.322;10.232;2023-06-14T07:55:47;19.00;75.90
38090;DHT22;23904;52.322;10.232;2023-06-14T07:58:13;19.20;75.10
38090;DHT22;23904;52.322;10.232;2023-06-14T08:00:39;19.20;74.50
38090;DHT22;23904;52.322;10.232;2023-06-14T08:03:04;19.40;75.00
38090;DHT22;23904;52.322;10.232;2023-06-14T08:05:30;19.60;74.10
38090;DHT22;23904;52.322;10.232;2023-06-14T08:07:56;19.80;73.60
38090;DHT22;23904;52.322;10.232;2023-06-14T08:10:22;19.60;71.30
38090;DHT22;23904;52.322;10.232;2023-06-14T08:12:48;19.60;72.50
38090;DHT22;23904;52.322;10.232;2023-06-14T08:15:15;19.70;70.60
38090;DHT22;23904;52.322;10.232;2023-06-14T08:17:44;19.90;68.80
38090;DHT22;23904;52.322;10.232;2023-06-14T08:20:11;19.90;68.50
38090;DHT22;23904;52.322;10.232;2023-06-14T08:22:37;20.00;68.50
38090;DHT22;23904;52.322;10.232;2023-06-14T08:25:06;20.00;68.00
38090;DHT22;23904;52.322;10.232;2023-06-14T08:27:32;20.10;68.30
38090;DHT22;23904;52.322;10.232;2023-06-14T08:29:58;20.10;67.60
38090;DHT22;23904;52.322;10.232;2023-06-14T08:32:23;20.10;68.00
38090;DHT22;23904;52.322;10.232;2023-06-14T08:34:49;20.20;67.30
38090;DHT22;23904;52.322;10.232;2023-06-14T08:37:15;20.30;66.70
38090;DHT22;23904;52.322;10.232;2023-06-14T08:39:40;20.40;67.30
38090;DHT22;23904;52.322;10.232;2023-06-14T08:42:07;20.50;66.10
38090;DHT22;23904;52.322;10.232;2023-06-14T08:44:34;20.70;65.30
38090;DHT22;23904;52.322;10.232;2023-06-14T08:47:00;21.00;64.60
38090;DHT22;23904;52.322;10.232;2023-06-14T08:49:26;21.20;64.50
38090;DHT22;23904;52.322;10.232;2023-06-14T08:51:59;21.50;62.50
38090;DHT22;23904;52.322;10.232;2023-06-14T08:54:27;22.20;62.10
38090;DHT22;23904;52.322;10.232;2023-06-14T08:56:55;23.40;59.00
38090;DHT22;23904;52.322;10.232;2023-06-14T08:59:26;24.30;58.00
38090;DHT22;23904;52.322;10.232;2023-06-14T09:01:53;25.10;56.70
38090;DHT22;23904;52.322;10.232;2023-06-14T09:04:25;26.20;54.10
38090;DHT22;23904;52.322;10.232;2023-06-14T09:06:55;26.50;52.50
38090;DHT22;23904;52.322;10.232;2023-06-14T09:09:21;27.20;51.20
38090;DHT22;23904;52.322;10.232;2023-06-14T09:11:51;28.20;49.50
38090;DHT22;23904;52.322;10.232;2023-06-14T09:14:21;28.40;49.10
38090;DHT22;23904;52.322;10.232;2023-06-14T09:16:52;29.00;48.30
38090;DHT22;23904;52.322;10.232;2023-06-14T09:19:24;29.60;46.60
38090;DHT22;23904;52.322;10.232;2023-06-14T09:21:50;30.40;45.70
38090;DHT22;23904;52.322;10.232;2023-06-14T09:24:19;31.10;43.60
38090;DHT22;23904;52.322;10.232;2023-06-14T09:26:47;30.70;42.80
38090;DHT22;23904;52.322;10.232;2023-06-14T09:29:13;31.10;43.20
38090;DHT22;23904;52.322;10.232;2023-06-14T09:31:39;31.50;42.70
38090;DHT22;23904;52.322;10.232;2023-06-14T09:34:05;31.40;43.00
38090;DHT22;23904;52.322;10.232;2023-06-14T09:36:32;32.10;40.90
38090;DHT22;23904;52.322;10.232;2023-06-14T09:38:58;32.10;41.20
38090;DHT22;23904;52.322;10.232;2023-06-14T09:41:39;31.50;42.50
38090;DHT22;23904;52.322;10.232;2023-06-14T09:44:07;31.90;42.50
38090;DHT22;23904;52.322;10.232;2023-06-14T09:46:34;32.70;39.90
38090;DHT22;23904;52.322;10.232;2023-06-14T09:49:02;32.30;40.80
38090;DHT22;23904;52.322;10.232;2023-06-14T09:51:28;32.30;41.20
38090;DHT22;23904;52.322;10.232;2023-06-14T09:54:00;32.60;40.00
38090;DHT22;23904;52.322;10.232;2023-06-14T09:56:28;32.90;39.40
38090;DHT22;23904;52.322;10.232;2023-06-14T09:58:57;33.30;39.40
38090;DHT22;23904;52.322;10.232;2023-06-14T10:01:29;32.60;40.90
38090;DHT22;23904;52.322;10.232;2023-06-14T10:04:02;33.20;39.30
38090;DHT22;23904;52.322;10.232;2023-06-14T10:06:29;32.70;39.70
38090;DHT22;23904;52.322;10.232;2023-06-14T10:08:57;32.90;39.80
38090;DHT22;23904;52.322;10.232;2023-06-14T10:11:25;32.80;39.50
38090;DHT22;23904;52.322;10.232;2023-06-14T10:13:52;31.60;40.80
38090;DHT22;23904;52.322;10.232;2023-06-14T10:16:42;30.60;42.00
38090;DHT22;23904;52.322;10.232;2023-06-14T10:19:37;30.40;42.80
38090;DHT22;23904;52.322;10.232;2023-06-14T10:24:48;31.00;41.80
38090;DHT22;23904;52.322;10.232;2023-06-14T10:27:15;31.50;41.30
38090;DHT22;23904;52.322;10.232;2023-06-14T10:32:23;31.90;41.70
38090;DHT22;23904;52.322;10.232;2023-06-14T10:34:58;32.00;40.30
38090;DHT22;23904;52.322;10.232;2023-06-14T10:37:25;31.60;40.80
38090;DHT22;23904;52.322;10.232;2023-06-14T10:39:51;30.40;41.80
38090;DHT22;23904;52.322;10.232;2023-06-14T10:42:18;28.90;44.50
38090;DHT22;23904;52.322;10.232;2023-06-14T10:44:57;28.00;45.00
38090;DHT22;23904;52.322;10.232;2023-06-14T10:47:26;27.60;46.40
38090;DHT22;23904;52.322;10.232;2023-06-14T10:50:10;27.10;47.00
38090;DHT22;23904;52.322;10.232;2023-06-14T10:52:43;27.20;47.80
38090;DHT22;23904;52.322;10.232;2023-06-14T10:55:14;26.90;47.00
38090;DHT22;23904;52.322;10.232;2023-06-14T10:57:51;26.50;48.50
38090;DHT22;23904;52.322;10.232;2023-06-14T11:00:27;26.60;48.60
38090;DHT22;23904;52.322;10.232;2023-06-14T11:03:12;26.60;48.70
38090;DHT22;23904;52.322;10.232;2023-06-14T11:08:55;26.30;50.10
38090;DHT22;23904;52.322;10.232;2023-06-14T11:11:35;26.40;49.90
38090;DHT22;23904;52.322;10.232;2023-06-14T11:14:02;27.40;48.30
38090;DHT22;23904;52.322;10.232;2023-06-14T11:16:28;28.20;46.90
38090;DHT22;23904;52.322;10.232;2023-06-14T11:18:54;29.20;45.80
38090;DHT22;23904;52.322;10.232;2023-06-14T11:21:20;30.90;43.90
38090;DHT22;23904;52.322;10.232;2023-06-14T11:23:50;31.40;42.30
38090;DHT22;23904;52.322;10.232;2023-06-14T11:26:24;31.10;42.70
38090;DHT22;23904;52.322;10.232;2023-06-14T11:28:59;29.10;45.80
38090;DHT22;23904;52.322;10.232;2023-06-14T11:31:27;27.90;47.70
38090;DHT22;23904;52.322;10.232;2023-06-14T11:33:54;27.20;49.60
38090;DHT22;23904;52.322;10.232;2023-06-14T11:36:21;26.70;50.50
38090;DHT22;23904;52.322;10.232;2023-06-14T11:38:47;26.50;50.90
38090;DHT22;23904;52.322;10.232;2023-06-14T11:41:13;26.20;51.70
38090;DHT22;23904;52.322;10.232;2023-06-14T11:43:39;26.10;51.70
38090;DHT22;23904;52.322;10.232;2023-06-14T11:46:12;25.70;52.50
38090;DHT22;23904;52.322;10.232;2023-06-14T11:48:41;25.60;52.70
38090;DHT22;23904;52.322;10.232;2023-06-14T11:51:10;26.10;52.00
38090;DHT22;23904;52.322;10.232;2023-06-14T11:53:36;25.90;51.70
38090;DHT22;23904;52.322;10.232;2023-06-14T11:56:02;25.50;51.90
38090;DHT22;23904;52.322;10.232;2023-06-14T11:58:29;25.10;53.00
38090;DHT22;23904;52.322;10.232;2023-06-14T12:00:55;24.90;54.80
38090;DHT22;23904;52.322;10.232;2023-06-14T12:03:25;24.60;55.10
38090;DHT22;23904;52.322;10.232;2023-06-14T12:06:01;24.50;55.50
38090;DHT22;23904;52.322;10.232;2023-06-14T12:08:37;24.40;56.30
38090;DHT22;23904;52.322;10.232;2023-06-14T12:11:10;24.50;56.30
38090;DHT22;23904;52.322;10.232;2023-06-14T12:13:40;24.60;54.80
38090;DHT22;23904;52.322;10.232;2023-06-14T12:16:10;24.90;54.90
38090;DHT22;23904;52.322;10.232;2023-06-14T12:18:39;25.80;53.60
38090;DHT22;23904;52.322;10.232;2023-06-14T12:21:06;27.10;51.40
38090;DHT22;23904;52.322;10.232;2023-06-14T12:23:59;27.80;50.40
38090;DHT22;23904;52.322;10.232;2023-06-14T12:26:25;28.60;48.80
38090;DHT22;23904;52.322;10.232;2023-06-14T12:28:52;28.30;47.90
38090;DHT22;23904;52.322;10.232;2023-06-14T12:31:17;27.70;49.10
38090;DHT22;23904;52.322;10.232;2023-06-14T12:33:44;27.20;49.70
38090;DHT22;23904;52.322;10.232;2023-06-14T12:36:11;26.70;50.60
38090;DHT22;23904;52.322;10.232;2023-06-14T12:38:37;26.00;52.00
38090;DHT22;23904;52.322;10.232;2023-06-14T12:41:03;26.30;52.00
38090;DHT22;23904;52.322;10.232;2023-06-14T12:43:29;26.80;51.80
38090;DHT22;23904;52.322;10.232;2023-06-14T12:45:55;27.30;50.10
38090;DHT22;23904;52.322;10.232;2023-06-14T12:48:21;27.40;50.00
38090;DHT22;23904;52.322;10.232;2023-06-14T12:50:47;27.60;49.60
38090;DHT22;23904;52.322;10.232;2023-06-14T12:53:13;27.50;49.40
38090;DHT22;23904;52.322;10.232;2023-06-14T12:55:39;27.20;49.50
38090;DHT22;23904;52.322;10.232;2023-06-14T12:58:04;26.80;48.90
38090;DHT22;23904;52.322;10.232;2023-06-14T13:00:30;26.30;50.00
38090;DHT22;23904;52.322;10.232;2023-06-14T13:02:56;26.10;50.60
38090;DHT22;23904;52.322;10.232;2023-06-14T13:05:23;25.80;51.50
38090;DHT22;23904;52.322;10.232;2023-06-14T13:07:49;25.50;52.20
38090;DHT22;23904;52.322;10.232;2023-06-14T13:10:16;25.30;51.70
38090;DHT22;23904;52.322;10.232;2023-06-14T13:12:43;25.20;52.00
38090;DHT22;23904;52.322;10.232;2023-06-14T13:15:09;25.10;52.50
38090;DHT22;23904;52.322;10.232;2023-06-14T13:17:35;24.90;53.20
38090;DHT22;23904;52.322;10.232;2023-06-14T13:20:05;24.80;52.80
38090;DHT22;23904;52.322;10.232;2023-06-14T13:22:32;24.80;53.00
38090;DHT22;23904;52.322;10.232;2023-06-14T13:24:58;25.10;52.50
38090;DHT22;23904;52.322;10.232;2023-06-14T13:27:23;25.20;52.80
38090;DHT22;23904;52.322;10.232;2023-06-14T13:29:50;25.50;53.10
38090;DHT22;23904;52.322;10.232;2023-06-14T13:32:15;25.50;52.80
38090;DHT22;23904;52.322;10.232;2023-06-14T13:34:41;25.80;52.00
38090;DHT22;23904;52.322;10.232;2023-06-14T13:37:06;25.90;51.10
38090;DHT22;23904;52.322;10.232;2023-06-14T13:39:32;25.60;51.00
38090;DHT22;23904;52.322;10.232;2023-06-14T13:41:57;25.50;51.90
38090;DHT22;23904;52.322;10.232;2023-06-14T13:44:23;25.50;52.30
38090;DHT22;23904;52.322;10.232;2023-06-14T13:46:50;25.60;52.00
38090;DHT22;23904;52.322;10.232;2023-06-14T13:49:16;25.80;51.80
38090;DHT22;23904;52.322;10.232;2023-06-14T13:51:42;25.80;52.10
38090;DHT22;23904;52.322;10.232;2023-06-14T13:54:08;26.00;51.20
38090;DHT22;23904;52.322;10.232;2023-06-14T13:56:33;26.10;51.30
38090;DHT22;23904;52.322;10.232;2023-06-14T13:58:59;26.40;50.30
38090;DHT22;23904;52.322;10.232;2023-06-14T14:01:26;26.50;50.50
38090;DHT22;23904;52.322;10.232;2023-06-14T14:03:53;26.40;50.20
38090;DHT22;23904;52.322;10.232;2023-06-14T14:06:19;26.20;51.30
38090;DHT22;23904;52.322;10.232;2023-06-14T14:08:45;26.00;51.20
38090;DHT22;23904;52.322;10.232;2023-06-14T14:11:12;25.80;51.10
38090;DHT22;23904;52.322;10.232;2023-06-14T14:13:38;25.60;51.30
38090;DHT22;23904;52.322;10.232;2023-06-14T14:16:05;25.40;52.20
38090;DHT22;23904;52.322;10.232;2023-06-14T14:18:31;25.30;52.60
38090;DHT22;23904;52.322;10.232;2023-06-14T14:20:58;25.30;52.70
38090;DHT22;23904;52.322;10.232;2023-06-14T14:23:24;25.10;52.00
38090;DHT22;23904;52.322;10.232;2023-06-14T14:25:49;25.10;52.40
38090;DHT22;23904;52.322;10.232;2023-06-14T14:28:15;25.00;53.30
38090;DHT22;23904;52.322;10.232;2023-06-14T14:30:42;25.00;53.00
38090;DHT22;23904;52.322;10.232;2023-06-14T14:33:08;25.00;52.40
38090;DHT22;23904;52.322;10.232;2023-06-14T14:35:33;25.00;52.40
38090;DHT22;23904;52.322;10.232;2023-06-14T14:37:59;25.00;52.30
38090;DHT22;23904;52.322;10.232;2023-06-14T14:40:25;25.00;51.60
38090;DHT22;23904;52.322;10.232;2023-06-14T14:42:51;25.00;52.00
38090;DHT22;23904;52.322;10.232;2023-06-14T14:45:17;25.00;52.00
38090;DHT22;23904;52.322;10.232;2023-06-14T14:47:43;25.00;52.00
38090;DHT22;23904;52.322;10.232;2023-06-14T14:50:08;24.80;52.20
38090;DHT22;23904;52.322;10.232;2023-06-14T14:52:35;24.80;52.70
38090;DHT22;23904;52.322;10.232;2023-06-14T14:55:01;24.80;52.40
38090;DHT22;23904;52.322;10.232;2023-06-14T14:57:26;25.00;52.90
38090;DHT22;23904;52.322;10.232;2023-06-14T14:59:52;25.20;52.70
38090;DHT22;23904;52.322;10.232;2023-06-14T15:02:18;25.20;52.20
38090;DHT22;23904;52.322;10.232;2023-06-14T15:04:44;25.60;51.90
38090;DHT22;23904;52.322;10.232;2023-06-14T15:07:10;25.90;50.90
38090;DHT22;23904;52.322;10.232;2023-06-14T15:09:35;26.00;50.70
38090;DHT22;23904;52.322;10.232;2023-06-14T15:12:01;25.90;50.50
38090;DHT22;23904;52.322;10.232;2023-06-14T15:14:28;25.80;51.20
38090;DHT22;23904;52.322;10.232;2023-06-14T15:16:53;25.60;50.20
38090;DHT22;23904;52.322;10.232;2023-06-14T15:19:19;25.40;50.50
38090;DHT22;23904;52.322;10.232;2023-06-14T15:21:44;25.20;51.10
38090;DHT22;23904;52.322;10.232;2023-06-14T15:24:10;25.10;51.80